createdAt,value
2017-11-04T00:00:11.823Z,0
2017-11-04T00:01:20.455Z,0
2017-11-04T00:02:29.419Z,0
2017-11-04T00:03:38.048Z,0
2017-11-04T00:04:46.671Z,0
2017-11-04T00:05:55.303Z,0
2017-11-04T00:07:03.927Z,0
2017-11-04T00:08:12.548Z,0
2017-11-04T00:09:21.174Z,0
2017-11-04T00:10:29.801Z,0
2017-11-04T00:11:38.760Z,0
2017-11-04T00:12:47.378Z,0
2017-11-04T00:13:56.006Z,0
2017-11-04T00:15:04.625Z,0
2017-11-04T00:16:13.253Z,0
2017-11-04T00:17:21.877Z,0
2017-11-04T00:18:30.493Z,0
2017-11-04T00:19:39.125Z,0
2017-11-04T00:20:47.741Z,0
2017-11-04T00:21:56.370Z,0
2017-11-04T00:23:04.995Z,0
2017-11-04T00:24:13.612Z,0
2017-11-04T00:25:22.236Z,0
2017-11-04T00:26:30.862Z,0
2017-11-04T00:27:39.482Z,0
2017-11-04T00:28:48.106Z,0
2017-11-04T00:29:56.735Z,0
2017-11-04T00:31:05.357Z,0
2017-11-04T00:32:13.975Z,0
2017-11-04T00:33:22.607Z,0
2017-11-04T00:34:31.223Z,0
2017-11-04T00:35:39.851Z,0
2017-11-04T00:36:48.473Z,0
2017-11-04T00:37:57.094Z,0
2017-11-04T00:39:05.723Z,0
2017-11-04T00:40:14.342Z,0
2017-11-04T00:41:23.297Z,0
2017-11-04T00:42:31.928Z,0
2017-11-04T00:43:40.880Z,0
2017-11-04T00:44:49.500Z,0
2017-11-04T00:45:58.124Z,0
2017-11-04T00:47:06.752Z,0
2017-11-04T00:48:15.367Z,0
2017-11-04T00:49:23.992Z,0
2017-11-04T00:50:32.613Z,0
2017-11-04T00:51:41.245Z,0
2017-11-04T00:52:49.864Z,0
2017-11-04T00:53:58.485Z,0
2017-11-04T00:55:07.113Z,0
2017-11-04T00:56:15.732Z,0
2017-11-04T00:57:24.361Z,0
2017-11-04T00:58:32.978Z,0
2017-11-04T00:59:41.602Z,0
2017-11-04T01:00:50.233Z,0
2017-11-04T01:01:58.853Z,0
2017-11-04T01:03:07.806Z,0
2017-11-04T01:04:16.428Z,0
2017-11-04T01:05:25.048Z,0
2017-11-04T01:06:33.685Z,0
2017-11-04T01:07:42.303Z,0
2017-11-04T01:08:50.923Z,0
2017-11-04T01:09:59.554Z,0
2017-11-04T01:11:08.175Z,0
2017-11-04T01:12:16.796Z,0
2017-11-04T01:13:25.415Z,0
2017-11-04T01:14:34.044Z,0
2017-11-04T01:15:42.658Z,0
2017-11-04T01:16:51.284Z,0
2017-11-04T01:17:59.907Z,0
2017-11-04T01:19:08.567Z,0
2017-11-04T01:20:17.193Z,0
2017-11-04T01:21:25.812Z,0
2017-11-04T01:22:34.434Z,0
2017-11-04T01:23:43.059Z,0
2017-11-04T01:24:51.678Z,0
2017-11-04T01:26:00.306Z,0
2017-11-04T01:27:09.264Z,0
2017-11-04T01:28:17.879Z,0
2017-11-04T01:29:27.163Z,0
2017-11-04T01:30:35.793Z,0
2017-11-04T01:31:44.411Z,0
2017-11-04T01:32:53.044Z,0
2017-11-04T01:34:01.658Z,0
2017-11-04T01:35:10.281Z,0
2017-11-04T01:36:18.909Z,0
2017-11-04T01:37:27.532Z,0
2017-11-04T01:38:36.153Z,0
2017-11-04T01:39:44.781Z,0
2017-11-04T01:40:53.399Z,0
2017-11-04T01:42:02.034Z,0
2017-11-04T01:43:10.669Z,0
2017-11-04T01:44:19.284Z,0
2017-11-04T01:45:27.903Z,0
2017-11-04T01:46:36.533Z,0
2017-11-04T01:47:45.145Z,0
2017-11-04T01:48:53.769Z,0
2017-11-04T01:50:02.719Z,0
2017-11-04T01:51:11.340Z,0
2017-11-04T01:52:19.969Z,0
2017-11-04T01:53:28.589Z,0
2017-11-04T01:54:37.216Z,0
2017-11-04T01:55:45.836Z,0
2017-11-04T01:56:54.457Z,0
2017-11-04T01:58:03.079Z,0
2017-11-04T01:59:11.700Z,0
2017-11-04T02:00:20.319Z,0
2017-11-04T02:01:28.949Z,0
2017-11-04T02:02:37.564Z,0
2017-11-04T02:03:46.188Z,0
2017-11-04T02:04:54.803Z,0
2017-11-04T02:06:03.430Z,0
2017-11-04T02:07:12.390Z,0
2017-11-04T02:08:21.013Z,0
2017-11-04T02:09:29.634Z,0
2017-11-04T02:10:38.261Z,0
2017-11-04T02:11:46.889Z,0
2017-11-04T02:12:55.509Z,0
2017-11-04T02:14:04.138Z,0
2017-11-04T02:15:12.756Z,0
2017-11-04T02:16:21.376Z,0
2017-11-04T02:17:29.993Z,0
2017-11-04T02:18:38.615Z,0
2017-11-04T02:19:47.244Z,0
2017-11-04T02:20:55.863Z,0
2017-11-04T02:22:04.483Z,0
2017-11-04T02:23:13.108Z,0
2017-11-04T02:24:21.740Z,0
2017-11-04T02:25:30.351Z,0
2017-11-04T02:26:38.976Z,0
2017-11-04T02:27:47.603Z,0
2017-11-04T02:28:56.216Z,0
2017-11-04T02:30:04.846Z,0
2017-11-04T02:31:13.471Z,0
2017-11-04T02:32:22.100Z,0
2017-11-04T02:33:30.722Z,0
2017-11-04T02:34:39.340Z,0
2017-11-04T02:35:47.966Z,0
2017-11-04T02:36:56.591Z,0
2017-11-04T02:38:05.208Z,0
2017-11-04T02:39:13.837Z,0
2017-11-04T02:40:22.457Z,0
2017-11-04T02:41:31.425Z,0
2017-11-04T02:42:40.048Z,0
2017-11-04T02:43:48.674Z,0
2017-11-04T02:44:57.295Z,0
2017-11-04T02:46:05.926Z,0
2017-11-04T02:47:14.543Z,0
2017-11-04T02:48:23.165Z,0
2017-11-04T02:49:31.791Z,0
2017-11-04T02:50:40.406Z,0
2017-11-04T02:51:49.034Z,0
2017-11-04T02:52:57.657Z,0
2017-11-04T02:54:06.283Z,0
2017-11-04T02:55:14.907Z,0
2017-11-04T02:56:23.531Z,0
2017-11-04T02:57:32.158Z,0
2017-11-04T02:58:40.783Z,0
2017-11-04T02:59:49.402Z,0
2017-11-04T03:00:58.031Z,0
2017-11-04T03:02:06.653Z,0
2017-11-04T03:03:15.281Z,0
2017-11-04T03:04:23.904Z,0
2017-11-04T03:05:32.523Z,0
2017-11-04T03:06:41.148Z,0
2017-11-04T03:07:49.774Z,0
2017-11-04T03:08:58.395Z,0
2017-11-04T03:10:07.026Z,0
2017-11-04T03:11:15.648Z,0
2017-11-04T03:12:24.266Z,0
2017-11-04T03:13:32.889Z,0
2017-11-04T03:14:41.520Z,0
2017-11-04T03:15:50.463Z,0
2017-11-04T03:16:59.088Z,0
2017-11-04T03:18:07.703Z,0
2017-11-04T03:19:16.331Z,0
2017-11-04T03:20:24.955Z,0
2017-11-04T03:21:33.577Z,0
2017-11-04T03:22:42.204Z,0
2017-11-04T03:23:50.825Z,0
2017-11-04T03:24:59.449Z,0
2017-11-04T03:26:08.075Z,0
2017-11-04T03:27:16.691Z,0
2017-11-04T03:28:25.316Z,0
2017-11-04T03:29:33.941Z,0
2017-11-04T03:30:42.569Z,0
2017-11-04T03:31:51.193Z,0
2017-11-04T03:32:59.805Z,0
2017-11-04T03:34:08.431Z,0
2017-11-04T03:35:17.055Z,0
2017-11-04T03:36:25.671Z,0
2017-11-04T03:37:34.299Z,0
2017-11-04T03:38:42.918Z,0
2017-11-04T03:39:51.537Z,0
2017-11-04T03:41:00.158Z,0
2017-11-04T03:42:08.788Z,0
2017-11-04T03:43:17.407Z,0
2017-11-04T03:44:26.032Z,0
2017-11-04T03:45:34.646Z,0
2017-11-04T03:46:43.272Z,0
2017-11-04T03:47:51.898Z,0
2017-11-04T03:49:00.519Z,0
2017-11-04T03:50:09.137Z,0
2017-11-04T03:51:17.765Z,0
2017-11-04T03:52:26.388Z,0
2017-11-04T03:53:35.010Z,0
2017-11-04T03:54:43.628Z,0
2017-11-04T03:55:52.253Z,0
2017-11-04T03:57:00.877Z,0
2017-11-04T03:58:09.828Z,0
2017-11-04T03:59:18.457Z,0
2017-11-04T04:00:27.071Z,0
2017-11-04T04:01:35.696Z,0
2017-11-04T04:02:44.324Z,0
2017-11-04T04:03:53.269Z,0
2017-11-04T04:05:01.896Z,0
2017-11-04T04:06:10.522Z,0
2017-11-04T04:07:19.140Z,0
2017-11-04T04:08:27.759Z,0
2017-11-04T04:09:36.386Z,0
2017-11-04T04:10:45.009Z,0
2017-11-04T04:11:53.636Z,0
2017-11-04T04:13:02.257Z,0
2017-11-04T04:14:10.871Z,0
2017-11-04T04:15:19.500Z,0
2017-11-04T04:16:28.120Z,0
2017-11-04T04:17:37.071Z,0
2017-11-04T04:18:45.698Z,0
2017-11-04T04:19:54.317Z,0
2017-11-04T04:21:03.273Z,0
2017-11-04T04:22:11.906Z,0
2017-11-04T04:23:20.525Z,0
2017-11-04T04:24:29.145Z,0
2017-11-04T04:25:37.771Z,0
2017-11-04T04:26:46.395Z,0
2017-11-04T04:27:55.010Z,0
2017-11-04T04:29:03.634Z,0
2017-11-04T04:30:12.253Z,0
2017-11-04T04:31:20.892Z,0
2017-11-04T04:32:29.518Z,0
2017-11-04T04:33:38.132Z,0
2017-11-04T04:34:46.754Z,0
2017-11-04T04:35:55.380Z,0
2017-11-04T04:37:03.997Z,0
2017-11-04T04:38:12.625Z,0
2017-11-04T04:39:21.250Z,0
2017-11-04T04:40:29.865Z,0
2017-11-04T04:41:38.490Z,0
2017-11-04T04:42:47.119Z,0
2017-11-04T04:43:55.746Z,0
2017-11-04T04:45:04.366Z,0
2017-11-04T04:46:12.985Z,0
2017-11-04T04:47:21.607Z,0
2017-11-04T04:48:30.234Z,0
2017-11-04T04:49:38.851Z,0
2017-11-04T04:50:47.479Z,0
2017-11-04T04:51:56.098Z,0
2017-11-04T04:53:04.723Z,0
2017-11-04T04:54:13.350Z,0
2017-11-04T04:55:21.968Z,0
2017-11-04T04:56:30.591Z,0
2017-11-04T04:57:39.211Z,0
2017-11-04T04:58:47.842Z,0
2017-11-04T04:59:56.468Z,0
2017-11-04T05:01:05.087Z,0
2017-11-04T05:02:13.712Z,0
2017-11-04T05:03:22.335Z,0
2017-11-04T05:04:30.950Z,0
2017-11-04T05:05:39.576Z,0
2017-11-04T05:06:48.203Z,0
2017-11-04T05:07:56.819Z,0
2017-11-04T05:09:05.443Z,0
2017-11-04T05:10:14.070Z,0
2017-11-04T05:11:23.021Z,0
2017-11-04T05:12:31.649Z,0
2017-11-04T05:13:40.264Z,0
2017-11-04T05:14:48.884Z,0
2017-11-04T05:15:57.512Z,0
2017-11-04T05:17:06.127Z,0
2017-11-04T05:18:14.752Z,0
2017-11-04T05:19:23.376Z,0
2017-11-04T05:20:31.999Z,0
2017-11-04T05:21:40.618Z,0
2017-11-04T05:22:49.254Z,0
2017-11-04T05:23:57.866Z,0
2017-11-04T05:25:06.487Z,0
2017-11-04T05:26:15.117Z,0
2017-11-04T05:27:23.730Z,0
2017-11-04T05:28:32.358Z,0
2017-11-04T05:29:40.980Z,0
2017-11-04T05:30:49.599Z,0
2017-11-04T05:31:58.227Z,0
2017-11-04T05:33:06.848Z,0
2017-11-04T05:34:15.466Z,0
2017-11-04T05:35:24.095Z,0
2017-11-04T05:36:32.717Z,0
2017-11-04T05:37:41.339Z,0
2017-11-04T05:38:49.964Z,0
2017-11-04T05:39:58.588Z,0
2017-11-04T05:41:07.204Z,0
2017-11-04T05:42:15.827Z,0
2017-11-04T05:43:24.448Z,0
2017-11-04T05:44:33.077Z,0
2017-11-04T05:45:41.694Z,0
2017-11-04T05:46:50.317Z,0
2017-11-04T05:47:59.269Z,0
2017-11-04T05:49:07.889Z,0
2017-11-04T05:50:16.512Z,0
2017-11-04T05:51:25.129Z,0
2017-11-04T05:52:33.755Z,0
2017-11-04T05:53:42.380Z,0
2017-11-04T05:54:51.002Z,0
2017-11-04T05:55:59.621Z,0
2017-11-04T05:57:08.241Z,0
2017-11-04T05:58:16.858Z,0
2017-11-04T05:59:25.489Z,0
2017-11-04T06:00:34.111Z,0
2017-11-04T06:01:42.734Z,0
2017-11-04T06:02:51.361Z,4
2017-11-04T06:03:59.978Z,4
2017-11-04T06:05:08.602Z,0
2017-11-04T06:06:17.228Z,4
2017-11-04T06:07:25.855Z,4
2017-11-04T06:08:34.799Z,4
2017-11-04T06:09:43.422Z,4
2017-11-04T06:10:52.043Z,8
2017-11-04T06:12:00.670Z,8
2017-11-04T06:13:09.293Z,8
2017-11-04T06:14:17.919Z,12
2017-11-04T06:15:26.535Z,12
2017-11-04T06:16:35.173Z,16
2017-11-04T06:17:43.776Z,20
2017-11-04T06:18:52.399Z,24
2017-11-04T06:20:01.024Z,24
2017-11-04T06:21:09.640Z,28
2017-11-04T06:22:18.264Z,32
2017-11-04T06:23:26.887Z,36
2017-11-04T06:24:35.503Z,36
2017-11-04T06:25:44.136Z,40
2017-11-04T06:26:52.749Z,44
2017-11-04T06:28:01.386Z,44
2017-11-04T06:29:09.994Z,52
2017-11-04T06:30:18.610Z,52
2017-11-04T06:31:27.232Z,56
2017-11-04T06:32:35.857Z,64
2017-11-04T06:33:44.479Z,68
2017-11-04T06:34:53.098Z,72
2017-11-04T06:36:01.725Z,80
2017-11-04T06:37:10.345Z,84
2017-11-04T06:38:18.964Z,96
2017-11-04T06:39:27.595Z,100
2017-11-04T06:40:36.208Z,108
2017-11-04T06:41:44.834Z,116
2017-11-04T06:42:53.454Z,128
2017-11-04T06:44:02.075Z,144
2017-11-04T06:45:10.703Z,156
2017-11-04T06:46:19.324Z,172
2017-11-04T06:47:27.948Z,188
2017-11-04T06:48:36.564Z,204
2017-11-04T06:49:45.193Z,224
2017-11-04T06:50:53.818Z,244
2017-11-04T06:52:02.440Z,264
2017-11-04T06:53:11.389Z,284
2017-11-04T06:54:20.019Z,304
2017-11-04T06:55:28.641Z,324
2017-11-04T06:56:37.266Z,344
2017-11-04T06:57:45.882Z,368
2017-11-04T06:58:54.527Z,384
2017-11-04T07:00:03.132Z,404
2017-11-04T07:01:11.753Z,428
2017-11-04T07:02:20.374Z,448
2017-11-04T07:03:29.003Z,468
2017-11-04T07:04:37.622Z,484
2017-11-04T07:05:46.247Z,500
2017-11-04T07:06:54.876Z,520
2017-11-04T07:08:03.497Z,536
2017-11-04T07:09:12.117Z,548
2017-11-04T07:10:21.071Z,556
2017-11-04T07:11:29.691Z,564
2017-11-04T07:12:38.318Z,572
2017-11-04T07:13:46.939Z,580
2017-11-04T07:14:55.564Z,588
2017-11-04T07:16:04.196Z,604
2017-11-04T07:17:12.811Z,620
2017-11-04T07:18:21.435Z,636
2017-11-04T07:19:30.053Z,660
2017-11-04T07:20:38.677Z,684
2017-11-04T07:21:47.306Z,720
2017-11-04T07:22:55.921Z,772
2017-11-04T07:24:04.562Z,836
2017-11-04T07:25:13.507Z,900
2017-11-04T07:26:22.133Z,980
2017-11-04T07:27:30.756Z,1076
2017-11-04T07:28:39.376Z,1164
2017-11-04T07:29:47.993Z,1236
2017-11-04T07:30:56.623Z,1284
2017-11-04T07:32:05.246Z,1292
2017-11-04T07:33:13.864Z,1268
2017-11-04T07:34:22.492Z,1224
2017-11-04T07:35:31.110Z,1152
2017-11-04T07:36:39.730Z,1088
2017-11-04T07:37:48.358Z,1040
2017-11-04T07:38:56.971Z,1008
2017-11-04T07:40:05.607Z,1008
2017-11-04T07:41:14.222Z,1060
2017-11-04T07:42:22.845Z,1128
2017-11-04T07:43:31.469Z,1172
2017-11-04T07:44:40.093Z,1192
2017-11-04T07:45:49.039Z,1192
2017-11-04T07:46:57.665Z,1200
2017-11-04T07:48:06.287Z,1220
2017-11-04T07:49:14.915Z,1248
2017-11-04T07:50:23.537Z,1284
2017-11-04T07:51:32.155Z,1304
2017-11-04T07:52:41.116Z,1328
2017-11-04T07:53:49.732Z,1340
2017-11-04T07:54:58.360Z,1372
2017-11-04T07:56:06.981Z,1412
2017-11-04T07:57:15.603Z,1452
2017-11-04T07:58:24.230Z,1492
2017-11-04T07:59:32.852Z,1548
2017-11-04T08:00:41.472Z,1632
2017-11-04T08:01:50.102Z,1716
2017-11-04T08:02:58.725Z,1772
2017-11-04T08:04:07.349Z,1848
2017-11-04T08:05:16.317Z,1936
2017-11-04T08:06:24.943Z,2012
2017-11-04T08:07:33.561Z,2088
2017-11-04T08:08:42.188Z,2172
2017-11-04T08:09:50.809Z,2248
2017-11-04T08:10:59.439Z,2304
2017-11-04T08:12:08.056Z,2336
2017-11-04T08:13:16.678Z,2324
2017-11-04T08:14:25.307Z,2240
2017-11-04T08:15:33.934Z,2132
2017-11-04T08:16:42.551Z,1992
2017-11-04T08:17:51.176Z,1856
2017-11-04T08:18:59.804Z,1740
2017-11-04T08:20:08.421Z,1660
2017-11-04T08:21:17.046Z,1604
2017-11-04T08:22:25.674Z,1576
2017-11-04T08:23:34.301Z,1560
2017-11-04T08:24:42.928Z,1564
2017-11-04T08:25:51.544Z,1592
2017-11-04T08:27:00.169Z,1644
2017-11-04T08:28:08.797Z,1700
2017-11-04T08:29:17.414Z,1752
2017-11-04T08:30:26.038Z,1792
2017-11-04T08:31:34.664Z,1820
2017-11-04T08:32:43.287Z,1840
2017-11-04T08:33:51.906Z,1852
2017-11-04T08:35:00.539Z,1848
2017-11-04T08:36:09.491Z,1856
2017-11-04T08:37:18.123Z,1852
2017-11-04T08:38:26.729Z,1852
2017-11-04T08:39:35.360Z,1884
2017-11-04T08:40:43.986Z,1940
2017-11-04T08:41:52.937Z,1928
2017-11-04T08:43:01.560Z,1908
2017-11-04T08:44:10.187Z,1928
2017-11-04T08:45:18.816Z,2044
2017-11-04T08:46:27.444Z,2320
2017-11-04T08:47:36.071Z,2232
2017-11-04T08:48:44.694Z,1816
2017-11-04T08:49:53.320Z,1616
2017-11-04T08:51:01.944Z,1612
2017-11-04T08:52:10.576Z,1592
2017-11-04T08:53:19.193Z,1628
2017-11-04T08:54:27.814Z,1964
2017-11-04T08:55:36.439Z,2244
2017-11-04T08:56:45.059Z,2328
2017-11-04T08:57:54.016Z,2420
2017-11-04T08:59:02.640Z,2452
2017-11-04T09:00:11.268Z,2324
2017-11-04T09:01:19.890Z,2336
2017-11-04T09:02:28.855Z,2028
2017-11-04T09:03:37.472Z,1932
2017-11-04T09:04:46.096Z,2020
2017-11-04T09:05:54.727Z,1916
2017-11-04T09:07:03.345Z,1756
2017-11-04T09:08:11.972Z,1756
2017-11-04T09:09:20.597Z,1812
2017-11-04T09:10:29.222Z,1824
2017-11-04T09:11:37.851Z,1708
2017-11-04T09:12:46.469Z,1680
2017-11-04T09:13:55.094Z,1680
2017-11-04T09:15:03.724Z,1704
2017-11-04T09:16:12.684Z,1824
2017-11-04T09:17:21.310Z,2012
2017-11-04T09:18:29.934Z,2108
2017-11-04T09:19:38.556Z,2172
2017-11-04T09:20:47.175Z,2208
2017-11-04T09:21:55.801Z,2420
2017-11-04T09:23:04.424Z,2392
2017-11-04T09:24:13.053Z,2412
2017-11-04T09:25:21.675Z,2388
2017-11-04T09:26:30.298Z,2596
2017-11-04T09:27:38.924Z,2532
2017-11-04T09:28:47.549Z,2532
2017-11-04T09:29:56.168Z,2344
2017-11-04T09:31:04.793Z,2436
2017-11-04T09:32:13.421Z,2492
2017-11-04T09:33:22.037Z,2448
2017-11-04T09:34:30.665Z,2336
2017-11-04T09:35:39.616Z,2316
2017-11-04T09:36:48.243Z,2372
2017-11-04T09:37:56.876Z,2192
2017-11-04T09:39:05.489Z,2128
2017-11-04T09:40:14.117Z,2136
2017-11-04T09:41:22.745Z,2188
2017-11-04T09:42:31.371Z,2116
2017-11-04T09:43:40.337Z,2160
2017-11-04T09:44:48.962Z,2332
2017-11-04T09:45:57.586Z,2016
2017-11-04T09:47:06.214Z,2080
2017-11-04T09:48:14.833Z,2124
2017-11-04T09:49:23.455Z,2196
2017-11-04T09:50:32.407Z,2272
2017-11-04T09:51:41.038Z,2432
2017-11-04T09:52:49.665Z,2440
2017-11-04T09:53:58.289Z,2408
2017-11-04T09:55:06.918Z,2424
2017-11-04T09:56:15.540Z,2444
2017-11-04T09:57:24.160Z,2408
2017-11-04T09:58:32.785Z,2372
2017-11-04T09:59:41.411Z,2396
2017-11-04T10:00:50.030Z,2380
2017-11-04T10:01:58.656Z,2432
2017-11-04T10:03:07.287Z,2436
2017-11-04T10:04:15.911Z,2440
2017-11-04T10:05:24.558Z,2412
2017-11-04T10:06:33.169Z,2460
2017-11-04T10:07:42.133Z,2488
2017-11-04T10:08:50.759Z,2504
2017-11-04T10:09:59.708Z,2544
2017-11-04T10:11:08.676Z,2564
2017-11-04T10:12:17.302Z,2548
2017-11-04T10:13:25.929Z,2532
2017-11-04T10:14:34.551Z,2496
2017-11-04T10:15:43.185Z,2296
2017-11-04T10:16:51.806Z,2460
2017-11-04T10:18:00.430Z,2480
2017-11-04T10:19:09.066Z,2492
2017-11-04T10:20:17.684Z,2500
2017-11-04T10:21:26.311Z,2512
2017-11-04T10:22:35.263Z,2500
2017-11-04T10:23:44.223Z,2488
2017-11-04T10:24:52.856Z,2488
2017-11-04T10:26:01.480Z,2484
2017-11-04T10:27:10.103Z,2504
2017-11-04T10:28:18.737Z,2496
2017-11-04T10:29:27.363Z,2496
2017-11-04T10:30:35.989Z,2448
2017-11-04T10:31:44.618Z,2364
2017-11-04T10:32:53.243Z,2344
2017-11-04T10:34:02.188Z,2488
2017-11-04T10:35:10.818Z,2360
2017-11-04T10:36:19.445Z,2612
2017-11-04T10:37:28.080Z,2724
2017-11-04T10:38:36.699Z,2808
2017-11-04T10:39:45.327Z,2328
2017-11-04T10:40:53.952Z,2208
2017-11-04T10:42:02.570Z,2636
2017-11-04T10:43:11.200Z,2664
2017-11-04T10:44:19.823Z,2700
2017-11-04T10:45:28.449Z,2656
2017-11-04T10:46:37.084Z,2700
2017-11-04T10:47:45.712Z,2764
2017-11-04T10:48:54.331Z,2812
2017-11-04T10:50:02.962Z,2832
2017-11-04T10:51:11.585Z,2796
2017-11-04T10:52:20.224Z,2764
2017-11-04T10:53:28.849Z,2652
2017-11-04T10:54:37.474Z,2620
2017-11-04T10:55:46.109Z,2616
2017-11-04T10:56:54.745Z,2624
2017-11-04T10:58:03.366Z,2624
2017-11-04T10:59:11.993Z,2644
2017-11-04T11:00:20.622Z,2636
2017-11-04T11:01:29.245Z,2532
2017-11-04T11:02:37.870Z,2484
2017-11-04T11:03:46.495Z,2564
2017-11-04T11:04:55.129Z,2508
2017-11-04T11:06:03.752Z,2644
2017-11-04T11:07:12.383Z,2704
2017-11-04T11:08:21.009Z,2684
2017-11-04T11:09:29.639Z,2648
2017-11-04T11:10:38.262Z,2620
2017-11-04T11:11:46.890Z,2636
2017-11-04T11:12:55.512Z,2684
2017-11-04T11:14:04.146Z,2704
2017-11-04T11:15:12.768Z,2712
2017-11-04T11:16:21.727Z,2808
2017-11-04T11:17:30.689Z,2776
2017-11-04T11:18:39.309Z,2736
2017-11-04T11:19:47.943Z,2772
2017-11-04T11:20:56.570Z,2736
2017-11-04T11:22:05.196Z,2792
2017-11-04T11:23:13.831Z,2728
2017-11-04T11:24:22.459Z,2736
2017-11-04T11:25:31.082Z,2736
2017-11-04T11:26:39.711Z,2540
2017-11-04T11:27:48.340Z,2592
2017-11-04T11:28:56.960Z,2264
2017-11-04T11:30:05.593Z,2228
2017-11-04T11:31:14.223Z,1916
2017-11-04T11:32:22.843Z,1872
2017-11-04T11:33:31.475Z,1880
2017-11-04T11:34:40.431Z,1812
2017-11-04T11:35:49.064Z,1712
2017-11-04T11:36:57.695Z,1680
2017-11-04T11:38:06.314Z,1840
2017-11-04T11:39:14.939Z,1676
2017-11-04T11:40:23.566Z,1692
2017-11-04T11:41:32.198Z,1764
2017-11-04T11:42:40.823Z,1860
2017-11-04T11:43:49.447Z,1980
2017-11-04T11:44:58.074Z,2132
2017-11-04T11:46:06.704Z,2268
2017-11-04T11:47:15.324Z,2652
2017-11-04T11:48:23.964Z,2932
2017-11-04T11:49:32.581Z,3152
2017-11-04T11:50:41.213Z,3096
2017-11-04T11:51:49.841Z,3224
2017-11-04T11:52:58.466Z,3256
2017-11-04T11:54:07.097Z,3140
2017-11-04T11:55:15.727Z,3092
2017-11-04T11:56:24.345Z,2988
2017-11-04T11:57:32.976Z,2200
2017-11-04T11:58:41.608Z,1960
2017-11-04T11:59:50.231Z,1812
2017-11-04T12:00:58.858Z,1744
2017-11-04T12:02:07.488Z,1672
2017-11-04T12:03:16.116Z,1664
2017-11-04T12:04:24.747Z,1660
2017-11-04T12:05:33.370Z,1776
2017-11-04T12:06:42.000Z,1740
2017-11-04T12:07:50.629Z,1720
2017-11-04T12:08:59.247Z,1732
2017-11-04T12:10:07.878Z,1824
2017-11-04T12:11:16.507Z,2020
2017-11-04T12:12:25.131Z,2484
2017-11-04T12:13:33.753Z,2828
2017-11-04T12:14:42.387Z,3104
2017-11-04T12:15:51.016Z,3304
2017-11-04T12:16:59.978Z,3440
2017-11-04T12:18:08.602Z,3544
2017-11-04T12:19:17.237Z,3600
2017-11-04T12:20:25.859Z,3592
2017-11-04T12:21:34.487Z,3656
2017-11-04T12:22:43.110Z,3640
2017-11-04T12:23:51.745Z,3560
2017-11-04T12:25:00.371Z,3440
2017-11-04T12:26:09.326Z,3348
2017-11-04T12:27:17.963Z,2780
2017-11-04T12:28:26.589Z,2748
2017-11-04T12:29:35.216Z,2964
2017-11-04T12:30:43.847Z,2928
2017-11-04T12:31:52.469Z,2920
2017-11-04T12:33:01.102Z,2920
2017-11-04T12:34:09.735Z,2952
2017-11-04T12:35:18.362Z,2976
2017-11-04T12:36:26.996Z,3012
2017-11-04T12:37:35.623Z,3016
2017-11-04T12:38:44.248Z,3072
2017-11-04T12:39:52.873Z,2984
2017-11-04T12:41:01.526Z,2900
2017-11-04T12:42:10.486Z,2480
2017-11-04T12:43:19.111Z,2216
2017-11-04T12:44:27.741Z,2256
2017-11-04T12:45:36.380Z,2552
2017-11-04T12:46:45.334Z,2668
2017-11-04T12:47:53.966Z,2676
2017-11-04T12:49:02.594Z,2668
2017-11-04T12:50:11.220Z,2624
2017-11-04T12:51:19.856Z,2532
2017-11-04T12:52:28.481Z,2592
2017-11-04T12:53:37.107Z,2616
2017-11-04T12:54:45.744Z,2632
2017-11-04T12:55:54.369Z,2616
2017-11-04T12:57:02.997Z,2540
2017-11-04T12:58:11.628Z,2488
2017-11-04T12:59:20.261Z,2672
2017-11-04T13:00:28.883Z,2672
2017-11-04T13:01:37.518Z,2656
2017-11-04T13:02:46.141Z,2616
2017-11-04T13:03:54.775Z,2564
2017-11-04T13:05:03.401Z,2536
2017-11-04T13:06:12.029Z,2476
2017-11-04T13:07:20.661Z,2440
2017-11-04T13:08:29.292Z,2292
2017-11-04T13:09:37.911Z,1768
2017-11-04T13:10:46.541Z,2196
2017-11-04T13:11:55.174Z,2256
2017-11-04T13:13:03.795Z,2248
2017-11-04T13:14:12.427Z,2244
2017-11-04T13:15:21.058Z,2216
2017-11-04T13:16:29.688Z,2220
2017-11-04T13:17:38.316Z,2248
2017-11-04T13:18:46.937Z,2268
2017-11-04T13:19:55.899Z,2288
2017-11-04T13:21:04.539Z,2324
2017-11-04T13:22:13.157Z,2208
2017-11-04T13:23:21.786Z,2436
2017-11-04T13:24:30.420Z,2512
2017-11-04T13:25:39.047Z,2564
2017-11-04T13:26:47.674Z,2580
2017-11-04T13:27:56.309Z,2620
2017-11-04T13:29:04.932Z,2636
2017-11-04T13:30:13.896Z,2656
2017-11-04T13:31:22.521Z,2684
2017-11-04T13:32:31.149Z,2660
2017-11-04T13:33:39.782Z,2324
2017-11-04T13:34:48.408Z,2204
2017-11-04T13:35:57.032Z,2236
2017-11-04T13:37:05.673Z,2716
2017-11-04T13:38:14.299Z,2864
2017-11-04T13:39:22.924Z,2964
2017-11-04T13:40:31.545Z,2600
2017-11-04T13:41:40.178Z,2384
2017-11-04T13:42:48.810Z,2196
2017-11-04T13:43:57.438Z,2092
2017-11-04T13:45:06.075Z,2112
2017-11-04T13:46:14.697Z,2556
2017-11-04T13:47:23.327Z,2408
2017-11-04T13:48:31.958Z,2504
2017-11-04T13:49:40.581Z,2472
2017-11-04T13:50:49.214Z,2536
2017-11-04T13:51:57.844Z,2612
2017-11-04T13:53:06.470Z,2576
2017-11-04T13:54:15.098Z,2528
2017-11-04T13:55:23.733Z,2516
2017-11-04T13:56:32.361Z,2492
2017-11-04T13:57:40.988Z,2444
2017-11-04T13:58:49.624Z,2376
2017-11-04T13:59:58.258Z,2232
2017-11-04T14:01:06.879Z,2072
2017-11-04T14:02:15.508Z,1920
2017-11-04T14:03:24.131Z,1792
2017-11-04T14:04:32.768Z,1696
2017-11-04T14:05:41.395Z,1632
2017-11-04T14:06:50.022Z,1580
2017-11-04T14:07:58.655Z,1540
2017-11-04T14:09:07.286Z,1504
2017-11-04T14:10:15.916Z,1484
2017-11-04T14:11:24.547Z,1468
2017-11-04T14:12:33.174Z,1448
2017-11-04T14:13:41.798Z,1424
2017-11-04T14:14:50.422Z,1404
2017-11-04T14:15:59.051Z,1384
2017-11-04T14:17:07.685Z,1368
2017-11-04T14:18:16.310Z,1360
2017-11-04T14:19:24.934Z,1344
2017-11-04T14:20:33.564Z,1336
2017-11-04T14:21:42.199Z,1320
2017-11-04T14:22:50.818Z,1304
2017-11-04T14:23:59.447Z,1292
2017-11-04T14:25:08.081Z,1280
2017-11-04T14:26:17.038Z,1268
2017-11-04T14:27:25.689Z,1248
2017-11-04T14:28:34.302Z,1236
2017-11-04T14:29:42.931Z,1224
2017-11-04T14:30:51.560Z,1216
2017-11-04T14:32:00.187Z,1204
2017-11-04T14:33:09.480Z,1192
2017-11-04T14:34:18.443Z,1180
2017-11-04T14:35:27.063Z,1168
2017-11-04T14:36:35.698Z,1152
2017-11-04T14:37:44.324Z,1136
2017-11-04T14:38:52.956Z,1100
2017-11-04T14:40:01.588Z,1092
2017-11-04T14:41:10.212Z,1084
2017-11-04T14:42:18.840Z,1084
2017-11-04T14:43:27.468Z,1080
2017-11-04T14:44:36.108Z,1072
2017-11-04T14:45:44.728Z,1060
2017-11-04T14:46:53.356Z,1040
2017-11-04T14:48:02.003Z,1028
2017-11-04T14:49:10.962Z,1012
2017-11-04T14:50:19.584Z,996
2017-11-04T14:51:28.216Z,988
2017-11-04T14:52:36.846Z,960
2017-11-04T14:53:45.466Z,920
2017-11-04T14:54:54.098Z,908
2017-11-04T14:56:02.730Z,900
2017-11-04T14:57:11.359Z,888
2017-11-04T14:58:19.990Z,856
2017-11-04T14:59:28.613Z,816
2017-11-04T15:00:37.242Z,784
2017-11-04T15:01:45.875Z,760
2017-11-04T15:02:54.833Z,732
2017-11-04T15:04:03.461Z,708
2017-11-04T15:05:12.092Z,684
2017-11-04T15:06:20.722Z,664
2017-11-04T15:07:29.354Z,640
2017-11-04T15:08:38.304Z,628
2017-11-04T15:09:46.934Z,604
2017-11-04T15:10:55.567Z,584
2017-11-04T15:12:04.189Z,572
2017-11-04T15:13:12.825Z,552
2017-11-04T15:14:21.453Z,536
2017-11-04T15:15:30.085Z,528
2017-11-04T15:16:38.721Z,516
2017-11-04T15:17:47.337Z,500
2017-11-04T15:18:55.966Z,492
2017-11-04T15:20:04.600Z,484
2017-11-04T15:21:13.222Z,476
2017-11-04T15:22:21.850Z,460
2017-11-04T15:23:30.484Z,440
2017-11-04T15:24:39.108Z,424
2017-11-04T15:25:47.733Z,408
2017-11-04T15:26:56.367Z,392
2017-11-04T15:28:04.996Z,380
2017-11-04T15:29:13.623Z,368
2017-11-04T15:30:22.240Z,356
2017-11-04T15:31:30.872Z,344
2017-11-04T15:32:39.506Z,332
2017-11-04T15:33:48.130Z,320
2017-11-04T15:34:56.763Z,300
2017-11-04T15:36:05.387Z,288
2017-11-04T15:37:14.350Z,276
2017-11-04T15:38:22.977Z,260
2017-11-04T15:39:31.599Z,244
2017-11-04T15:40:40.228Z,232
2017-11-04T15:41:48.858Z,220
2017-11-04T15:42:57.486Z,204
2017-11-04T15:44:06.448Z,192
2017-11-04T15:45:15.071Z,176
2017-11-04T15:46:23.701Z,160
2017-11-04T15:47:32.331Z,148
2017-11-04T15:48:40.949Z,132
2017-11-04T15:49:49.581Z,120
2017-11-04T15:50:58.212Z,108
2017-11-04T15:52:06.844Z,104
2017-11-04T15:53:15.469Z,92
2017-11-04T15:54:24.103Z,88
2017-11-04T15:55:32.727Z,80
2017-11-04T15:56:41.358Z,72